Capitol, MT

9:41 PM MDT on August 21, 2014 (GMT -0600)
Baker Municipal | Change Station
CLOSE
Current Station
Airport
Location: Baker,
Elevation: 2972 ft
Nearby Weather Stations

Elev 2972 ft 46.35 °N, 104.26 °W | Updated 50 minutes ago

Light Rain
Light Rain
64 °F
Feels Like 64 °F
N
4
Wind Variable Wind from NNW

Today
High -- | Low -- °F
--% Chance of Precip.
Yesterday
High -- | Low -- °F
Precip. -- in
6:04 AM 7:53 PM
Waning Crescent, 10% visible
Pressure 30.00 in
Visibility 8.0 miles
Clouds Few 5000 ft
Mostly Cloudy 9000 ft
Overcast 11000 ft
Dew Point 62 °F
Humidity 93%
Rainfall 0.10 in
Snow Depth Not available.
UV 0 out of 12
Pollen 9.70 out of 12
Air Quality Not available.
Flu Activity Not available.
METAR KBHK 220251Z AUTO 34003KT 8SM -RA FEW050 BKN090 OVC110 18/17 A3004 RMK AO2 LTG DSNT E AND SE SLP157 P0003 60010 T01780167 53017

More Conditions Fewer Conditions

Pressure 30.00 in
Visibility 8.0 miles
Clouds Few 5000 ft
Mostly Cloudy 9000 ft
Overcast 11000 ft
Dew Point 62 °F
Humidity 93%
Rainfall 0.10 in
Snow Depth Not available.
UV 0 out of 12
Pollen 9.70 out of 12
Air Quality Not available.
Flu Activity Not available.
METAR KBHK 220251Z AUTO 34003KT 8SM -RA FEW050 BKN090 OVC110 18/17 A3004 RMK AO2 LTG DSNT E AND SE SLP157 P0003 60010 T01780167 53017

More Conditions Fewer Conditions

10-Day Weather Forecast

Almanac

Astronomy

Aug. 21, 2014 Rise Set
Actual Time 6:04 AM MDT 7:53 PM MDT
Civil Twilight 5:33 AM MDT 8:25 PM MDT
Nautical Twilight 4:54 AM MDT 9:03 PM MDT
Astronomical Twilight 4:12 AM MDT 9:45 PM MDT
Moon 2:32 AM MDT (8/21) 5:28 PM MDT (8/21)
Length of Visible Light 14h 52m
Length of Day
13h 49m
Tomorrow will be 2m 56s shorter.
Waning Crescent, 10% of the Moon is Illuminated
Today
Waning Crescent
Aug 25
New
Sep 2
First Quarter
Sep 8
Full
Sep 15
Last Quarter

Today's Extremes

State Highs State Lows

Community

WunderPhotos

Upload Photos

1,746,127 photos uploaded!

Nearby

Snow Depth

Station Depth Elevation
Cole Creek 1 in 7850 ft
Burnt Mountain 0 in 5880 ft
Crystal Lake 0 in 6050 ft
White Mill 2 in 8700 ft
Northeast Entrance 0 in 7350 ft

Earthquake Activity

City Distance Mag. Time & Date
No recent earthquake activity has been reported nearby.
Minimum magnitude displayed is 2.5.

Coastal Water Temperatures

Place Temperature
No Stations Reporting

Nearby Weather Stations